Terminal Aerodrome Forecast
Issued by NWS Cleveland, OH

Home | Current Version | Previous Version | Text Only | Print | Product List | Glossary On
Versions: 1 2 3 4 5 6 7 8 9 10 11 12 13 14 15 16 17 18 19 20 21 22 23 24 25 26 27 28 29
135
FTUS41 KCLE 110535
TAFCLE
TAF
KCLE 110535Z 1106/1212 28008KT 6SM -SN SCT025 OVC035
      TEMPO 1106/1110 3SM -SHSN OVC025
     FM111100 25005KT P6SM BKN015 OVC025
     FM111800 19008KT P6SM SCT025 OVC040
     FM120000 19008KT 5SM -SN OVC025
     FM120700 27012G18KT 2SM -SN SCT008 OVC012=

USA.gov is the U.S. government's official web portal to all federal, state and local government web resources and services.